Time;durP1;ratioP1;P1;durP2;ratioP2;P2;SDS_P1;SDS_P2;PMS_P1;PMS_P2;Temp;Humidity;BMP_temperature;BMP_pressure;BME280_temperature;BME280_humidity;BME280_pressure;Samples;Min_cycle;Max_cycle;Signal;HPM_P1;HPM_P2
2021/09/02 00:02:10;;;;;;;;;19.25;18.25;;;;;;;;5071082;28;50884;-70
2021/09/02 00:04:35;;;;;;;;;19.50;18.00;;;;;;;;5065133;28;50907;-70
2021/09/02 00:07:00;;;;;;;;;18.25;16.25;;;;;;;;5072231;28;51131;-70
2021/09/02 00:09:26;;;;;;;;;22.25;22.00;;;;;;;;5066193;28;51070;-70
2021/09/02 00:11:51;;;;;;;;;19.25;18.00;;;;;;;;5073178;28;50951;-70
2021/09/02 00:14:16;;;;;;;;;19.50;19.00;;;;;;;;5062118;28;51248;-70
2021/09/02 00:16:42;;;;;;;;;17.50;17.00;;;;;;;;5065792;28;51816;-71
2021/09/02 00:19:07;;;;;;;;;20.00;19.00;;;;;;;;5042913;28;51187;-71
2021/09/02 00:21:33;;;;;;;;;16.75;16.75;;;;;;;;5072283;28;51278;-70
2021/09/02 00:23:58;;;;;;;;;20.00;19.00;;;;;;;;5070971;28;51065;-70
2021/09/02 00:26:23;;;;;;;;;21.00;16.75;;;;;;;;5074042;28;52834;-70
2021/09/02 00:28:48;;;;;;;;;20.00;17.50;;;;;;;;5065214;28;51280;-70
2021/09/02 00:31:13;;;;;;;;;18.00;17.25;;;;;;;;5074870;28;51089;-69
2021/09/02 00:33:39;;;;;;;;;17.75;17.25;;;;;;;;5063632;28;51295;-70
2021/09/02 00:36:04;;;;;;;;;17.75;16.75;;;;;;;;5071536;28;51995;-70
2021/09/02 00:38:32;;;;;;;;;19.00;18.00;;;;;;;;5074630;28;50929;-70
2021/09/02 00:40:57;;;;;;;;;19.25;19.25;;;;;;;;5067531;28;51703;-70
2021/09/02 00:43:22;;;;;;;;;21.75;20.00;;;;;;;;5073549;28;51235;-70
2021/09/02 00:45:47;;;;;;;;;14.00;14.00;;;;;;;;5058315;28;52833;-70
2021/09/02 00:48:13;;;;;;;;;23.00;21.25;;;;;;;;5074627;28;50975;-70
2021/09/02 00:50:39;;;;;;;;;20.00;17.50;;;;;;;;5074252;28;51149;-70
2021/09/02 00:53:04;;;;;;;;;18.50;17.75;;;;;;;;5069402;28;50986;-70
2021/09/02 00:55:30;;;;;;;;;22.75;21.25;;;;;;;;5069694;28;51212;-70
2021/09/02 00:57:55;;;;;;;;;21.25;18.25;;;;;;;;5062293;27;51000;-71
2021/09/02 01:00:20;;;;;;;;;19.00;18.50;;;;;;;;5074629;28;51076;-71
2021/09/02 01:02:46;;;;;;;;;18.75;18.25;;;;;;;;5066641;28;51271;-70
2021/09/02 01:05:16;;;;;;;;;18.00;17.25;;;;;;;;5072991;28;52405;-71
2021/09/02 01:07:41;;;;;;;;;20.50;19.00;;;;;;;;5071462;28;51005;-71
2021/09/02 01:10:09;;;;;;;;;24.00;22.00;;;;;;;;5074347;28;51231;-70
2021/09/02 01:12:37;;;;;;;;;17.25;17.25;;;;;;;;5074091;28;51262;-71
2021/09/02 01:15:09;;;;;;;;;23.25;20.50;;;;;;;;5073749;28;51022;-71
2021/09/02 01:17:34;;;;;;;;;19.00;17.00;;;;;;;;5072807;28;51100;-71
2021/09/02 01:20:00;;;;;;;;;19.25;17.00;;;;;;;;5074095;28;51053;-71
2021/09/02 01:22:26;;;;;;;;;20.50;18.25;;;;;;;;5073055;28;51246;-71
2021/09/02 01:24:52;;;;;;;;;19.00;18.50;;;;;;;;5068524;28;52163;-71
2021/09/02 01:27:19;;;;;;;;;21.75;19.25;;;;;;;;5071789;28;51053;-71
2021/09/02 01:29:49;;;;;;;;;21.50;18.00;;;;;;;;5074095;28;51112;-71
2021/09/02 01:32:14;;;;;;;;;20.00;18.50;;;;;;;;5072987;28;50892;-71
2021/09/02 01:34:39;;;;;;;;;23.00;20.00;;;;;;;;5070685;28;51085;-69
2021/09/02 01:37:04;;;;;;;;;25.25;23.00;;;;;;;;5073179;28;51107;-69
2021/09/02 01:39:29;;;;;;;;;21.75;21.75;;;;;;;;5058549;27;50860;-69
2021/09/02 01:41:55;;;;;;;;;20.75;19.75;;;;;;;;5071949;28;51108;-69
2021/09/02 01:44:20;;;;;;;;;23.75;22.25;;;;;;;;5054114;28;52651;-69
2021/09/02 01:46:45;;;;;;;;;18.75;18.25;;;;;;;;5072786;28;51080;-69
2021/09/02 01:49:10;;;;;;;;;21.00;20.00;;;;;;;;5052327;28;50942;-69
2021/09/02 01:51:35;;;;;;;;;20.50;19.25;;;;;;;;5073814;28;50894;-69
2021/09/02 01:54:01;;;;;;;;;21.00;19.75;;;;;;;;5072056;28;52144;-69
2021/09/02 01:56:26;;;;;;;;;18.00;17.50;;;;;;;;5072242;28;50979;-73
2021/09/02 01:58:51;;;;;;;;;20.25;19.00;;;;;;;;5069057;27;51160;-72
2021/09/02 02:01:16;;;;;;;;;21.00;19.25;;;;;;;;5073822;28;51060;-72
2021/09/02 02:03:41;;;;;;;;;23.75;23.00;;;;;;;;5069462;28;52226;-72
2021/09/02 02:06:07;;;;;;;;;22.25;21.25;;;;;;;;5073003;28;50963;-72
2021/09/02 02:08:32;;;;;;;;;18.75;17.75;;;;;;;;5072126;28;51131;-74
2021/09/02 02:10:57;;;;;;;;;18.25;17.50;;;;;;;;5073738;28;51468;-69
2021/09/02 02:13:22;;;;;;;;;19.00;17.75;;;;;;;;5068233;28;51916;-71
2021/09/02 02:15:47;;;;;;;;;22.00;20.00;;;;;;;;5068114;28;51129;-70
2021/09/02 02:18:13;;;;;;;;;25.25;22.25;;;;;;;;5071318;28;51111;-66
2021/09/02 02:20:38;;;;;;;;;23.25;21.00;;;;;;;;5073230;28;51001;-65
2021/09/02 02:23:03;;;;;;;;;22.75;17.75;;;;;;;;5070596;28;52645;-66
2021/09/02 02:25:29;;;;;;;;;21.00;19.00;;;;;;;;5073204;28;50946;-65
2021/09/02 02:27:54;;;;;;;;;21.25;19.75;;;;;;;;5069934;28;51302;-66
2021/09/02 02:30:20;;;;;;;;;28.25;26.50;;;;;;;;5057547;28;51390;-69
2021/09/02 02:32:46;;;;;;;;;23.50;21.00;;;;;;;;5063411;28;51350;-69
2021/09/02 02:35:12;;;;;;;;;22.25;22.25;;;;;;;;5044778;28;51076;-69
2021/09/02 02:37:38;;;;;;;;;24.25;22.25;;;;;;;;5072916;28;50942;-69
2021/09/02 02:40:04;;;;;;;;;20.50;19.25;;;;;;;;5073164;28;51336;-69
2021/09/02 02:42:29;;;;;;;;;24.00;21.50;;;;;;;;5070111;28;51964;-69
2021/09/02 02:44:54;;;;;;;;;22.50;21.50;;;;;;;;5072854;28;50867;-69
2021/09/02 02:47:19;;;;;;;;;24.75;22.25;;;;;;;;5070630;28;50895;-71
2021/09/02 02:49:44;;;;;;;;;23.50;20.00;;;;;;;;5072767;28;50902;-71
2021/09/02 02:52:10;;;;;;;;;24.00;22.00;;;;;;;;5067450;28;51018;-71
2021/09/02 02:54:35;;;;;;;;;21.50;19.75;;;;;;;;5072864;28;51087;-69
2021/09/02 02:57:00;;;;;;;;;19.75;18.75;;;;;;;;5072667;28;51126;-69
2021/09/02 02:59:26;;;;;;;;;27.75;21.25;;;;;;;;5069819;27;50885;-70
2021/09/02 03:01:51;;;;;;;;;24.25;21.75;;;;;;;;5051340;28;52454;-69
2021/09/02 03:04:16;;;;;;;;;23.75;21.50;;;;;;;;5072699;28;51042;-68
2021/09/02 03:06:41;;;;;;;;;28.25;24.50;;;;;;;;5076351;28;51060;-69
2021/09/02 03:09:06;;;;;;;;;21.25;19.50;;;;;;;;5072334;28;51231;-69
2021/09/02 03:11:32;;;;;;;;;22.25;22.00;;;;;;;;5064269;28;52169;-70
2021/09/02 03:13:57;;;;;;;;;25.50;20.50;;;;;;;;5075939;28;51094;-71
2021/09/02 03:16:22;;;;;;;;;24.50;21.25;;;;;;;;5076247;28;50969;-72
2021/09/02 03:18:48;;;;;;;;;26.25;24.25;;;;;;;;5075714;28;51201;-75
2021/09/02 03:21:13;;;;;;;;;22.50;20.75;;;;;;;;5075999;28;52022;-74
2021/09/02 03:23:38;;;;;;;;;25.50;22.50;;;;;;;;5074125;28;50938;-74
2021/09/02 03:26:03;;;;;;;;;22.25;21.00;;;;;;;;5076133;28;51014;-69
2021/09/02 03:28:28;;;;;;;;;27.25;21.50;;;;;;;;5076199;28;51060;-69
2021/09/02 03:30:54;;;;;;;;;23.00;21.75;;;;;;;;5075559;28;53095;-69
2021/09/02 03:33:19;;;;;;;;;24.75;22.75;;;;;;;;5058787;28;51043;-68
2021/09/02 03:35:44;;;;;;;;;28.00;26.00;;;;;;;;5045971;28;51193;-66
2021/09/02 03:38:09;;;;;;;;;27.00;23.50;;;;;;;;5072828;28;51135;-69
2021/09/02 03:40:35;;;;;;;;;26.25;25.75;;;;;;;;5077101;27;51089;-68
2021/09/02 03:43:00;;;;;;;;;25.50;23.00;;;;;;;;5067773;27;51196;-70
2021/09/02 03:45:25;;;;;;;;;25.00;23.25;;;;;;;;5076009;28;51065;-71
2021/09/02 03:47:50;;;;;;;;;22.75;19.75;;;;;;;;5057400;28;51051;-71
2021/09/02 03:50:17;;;;;;;;;28.25;25.75;;;;;;;;5074823;28;51824;-72
2021/09/02 03:52:42;;;;;;;;;30.00;28.25;;;;;;;;5045106;28;51132;-72
2021/09/02 03:55:08;;;;;;;;;24.50;21.75;;;;;;;;5075374;28;50966;-73
2021/09/02 03:57:33;;;;;;;;;27.75;26.75;;;;;;;;5057069;28;50933;-72
2021/09/02 03:59:58;;;;;;;;;27.50;25.75;;;;;;;;5071992;27;52031;-72
2021/09/02 04:02:23;;;;;;;;;29.75;26.25;;;;;;;;5068352;28;50929;-72
2021/09/02 04:04:49;;;;;;;;;28.25;25.75;;;;;;;;5070088;28;50816;-72
2021/09/02 04:07:14;;;;;;;;;30.50;27.00;;;;;;;;5075552;28;52040;-72
2021/09/02 04:09:39;;;;;;;;;20.25;20.25;;;;;;;;5069570;28;51072;-69
2021/09/02 04:12:04;;;;;;;;;25.25;25.25;;;;;;;;5073355;28;51099;-70
2021/09/02 04:14:30;;;;;;;;;22.75;20.75;;;;;;;;5053024;28;50997;-70
2021/09/02 04:16:55;;;;;;;;;25.25;22.75;;;;;;;;5075256;28;50957;-69
2021/09/02 04:19:21;;;;;;;;;26.00;25.75;;;;;;;;5075502;28;53158;-77
2021/09/02 04:21:46;;;;;;;;;28.75;26.50;;;;;;;;5067637;28;51040;-77
2021/09/02 04:24:12;;;;;;;;;23.00;21.50;;;;;;;;5059979;28;51210;-77
2021/09/02 04:26:37;;;;;;;;;26.50;24.00;;;;;;;;5075674;28;51360;-70
2021/09/02 04:29:02;;;;;;;;;24.00;23.50;;;;;;;;5074729;28;52153;-71
2021/09/02 04:31:27;;;;;;;;;27.25;25.50;;;;;;;;5071159;28;51138;-69
2021/09/02 04:33:53;;;;;;;;;25.50;24.50;;;;;;;;5074691;28;51243;-69
2021/09/02 04:36:19;;;;;;;;;28.00;25.00;;;;;;;;5073559;28;51305;-74
2021/09/02 04:38:44;;;;;;;;;22.00;17.00;;;;;;;;5059756;28;52250;-71
2021/09/02 04:41:10;;;;;;;;;24.00;20.75;;;;;;;;5058235;28;50975;-70
2021/09/02 04:43:35;;;;;;;;;30.75;25.75;;;;;;;;5067721;28;51059;-66
2021/09/02 04:46:00;;;;;;;;;25.00;22.50;;;;;;;;5074914;28;50957;-66
2021/09/02 04:48:25;;;;;;;;;30.25;27.00;;;;;;;;5073337;28;52000;-66
2021/09/02 04:50:51;;;;;;;;;28.75;25.25;;;;;;;;5072275;28;51156;-66
2021/09/02 04:53:17;;;;;;;;;24.25;23.25;;;;;;;;5067449;28;51101;-66
2021/09/02 04:55:42;;;;;;;;;28.75;26.00;;;;;;;;5074415;28;51030;-67
2021/09/02 04:58:08;;;;;;;;;29.75;26.75;;;;;;;;5074184;28;51127;-66
2021/09/02 05:00:35;;;;;;;;;29.50;27.25;;;;;;;;5067668;27;50937;-67
2021/09/02 05:03:00;;;;;;;;;28.75;27.00;;;;;;;;5069162;28;52871;-67
2021/09/02 05:05:25;;;;;;;;;27.50;26.75;;;;;;;;5074098;28;51046;-68
2021/09/02 05:07:51;;;;;;;;;28.50;25.25;;;;;;;;5055811;28;53851;-67
2021/09/02 05:10:16;;;;;;;;;32.75;29.25;;;;;;;;5074148;28;50916;-67
2021/09/02 05:12:41;;;;;;;;;26.00;23.25;;;;;;;;5071230;28;51180;-68
2021/09/02 05:15:07;;;;;;;;;31.25;29.00;;;;;;;;5069240;28;50900;-67
2021/09/02 05:17:32;;;;;;;;;33.25;30.50;;;;;;;;5071924;28;51798;-68
2021/09/02 05:19:58;;;;;;;;;29.50;26.50;;;;;;;;5072194;27;51157;-69
2021/09/02 05:22:23;;;;;;;;;37.00;31.75;;;;;;;;5058676;27;50907;-68
2021/09/02 05:24:48;;;;;;;;;24.25;23.50;;;;;;;;5067581;28;51097;-68
2021/09/02 05:27:13;;;;;;;;;36.75;32.00;;;;;;;;5071563;28;52419;-69
2021/09/02 05:29:38;;;;;;;;;31.50;27.50;;;;;;;;5073586;28;51063;-68
2021/09/02 05:32:04;;;;;;;;;33.25;31.25;;;;;;;;5078744;27;51045;-72
2021/09/02 05:34:29;;;;;;;;;34.75;27.75;;;;;;;;5063654;27;51253;-72
2021/09/02 05:36:54;;;;;;;;;29.50;27.25;;;;;;;;5065176;28;52406;-72
2021/09/02 05:39:19;;;;;;;;;31.75;31.00;;;;;;;;5068771;28;51045;-70
2021/09/02 05:41:48;;;;;;;;;32.25;27.75;;;;;;;;5063144;28;51117;-71
2021/09/02 05:44:13;;;;;;;;;28.00;26.25;;;;;;;;5077520;27;51265;-73
2021/09/02 05:46:39;;;;;;;;;35.50;33.25;;;;;;;;5073279;28;52059;-73
2021/09/02 05:49:04;;;;;;;;;27.75;25.75;;;;;;;;5073540;28;51044;-73
2021/09/02 05:51:29;;;;;;;;;29.75;27.75;;;;;;;;5073967;28;50917;-68
2021/09/02 05:53:54;;;;;;;;;33.50;29.50;;;;;;;;5055894;28;50982;-73
2021/09/02 05:56:19;;;;;;;;;31.25;30.00;;;;;;;;5073291;28;52218;-74
2021/09/02 05:58:45;;;;;;;;;40.00;30.75;;;;;;;;5060209;28;50926;-70
2021/09/02 06:01:10;;;;;;;;;27.75;26.75;;;;;;;;5067337;27;51457;-73
2021/09/02 06:03:35;;;;;;;;;29.50;27.00;;;;;;;;5073272;28;51390;-72
2021/09/02 06:06:00;;;;;;;;;30.50;28.00;;;;;;;;5074458;28;52391;-74
2021/09/02 06:08:25;;;;;;;;;34.25;31.50;;;;;;;;5073725;28;50907;-75
2021/09/02 06:10:51;;;;;;;;;31.25;29.75;;;;;;;;5073549;28;51311;-70
2021/09/02 06:13:16;;;;;;;;;31.50;29.75;;;;;;;;5073546;28;51132;-69
2021/09/02 06:15:41;;;;;;;;;31.75;30.50;;;;;;;;5071565;28;52078;-70
2021/09/02 06:18:06;;;;;;;;;37.75;32.50;;;;;;;;5073029;28;51172;-70
2021/09/02 06:20:32;;;;;;;;;34.00;31.75;;;;;;;;5072053;28;51261;-68
2021/09/02 06:22:57;;;;;;;;;34.00;30.50;;;;;;;;5054769;28;51094;-70
2021/09/02 06:25:22;;;;;;;;;30.75;29.00;;;;;;;;5072466;28;52002;-69
2021/09/02 06:27:48;;;;;;;;;39.25;34.00;;;;;;;;5054177;28;51095;-73
2021/09/02 06:30:13;;;;;;;;;44.00;37.00;;;;;;;;5078932;27;51221;-70
2021/09/02 06:32:38;;;;;;;;;30.25;29.00;;;;;;;;5071679;28;51220;-71
2021/09/02 06:35:04;;;;;;;;;29.25;26.75;;;;;;;;5069285;28;51294;-71
2021/09/02 06:37:29;;;;;;;;;37.25;32.00;;;;;;;;5070002;28;51156;-73
2021/09/02 06:39:54;;;;;;;;;33.50;30.25;;;;;;;;5065861;28;50985;-71
2021/09/02 06:42:19;;;;;;;;;30.00;26.75;;;;;;;;5068317;28;51163;-72
2021/09/02 06:44:45;;;;;;;;;29.75;27.25;;;;;;;;5062434;28;51145;-72
2021/09/02 06:47:10;;;;;;;;;28.50;26.75;;;;;;;;5068899;28;51054;-70
2021/09/02 06:49:35;;;;;;;;;29.75;28.25;;;;;;;;5067551;28;51504;-71
2021/09/02 06:52:00;;;;;;;;;27.00;25.00;;;;;;;;5069322;28;51032;-74
2021/09/02 06:54:26;;;;;;;;;25.75;24.25;;;;;;;;5071880;28;51736;-71
2021/09/02 06:56:51;;;;;;;;;24.50;23.00;;;;;;;;5071604;28;51265;-71
2021/09/02 06:59:19;;;;;;;;;28.50;28.00;;;;;;;;5071754;28;51053;-71
2021/09/02 07:01:44;;;;;;;;;29.75;26.75;;;;;;;;5064591;27;51556;-72
2021/09/02 07:04:10;;;;;;;;;34.25;29.25;;;;;;;;5069506;28;51958;-71
2021/09/02 07:06:35;;;;;;;;;31.25;29.50;;;;;;;;5071415;28;51005;-71
2021/09/02 07:09:00;;;;;;;;;34.50;30.00;;;;;;;;5053320;28;51038;-73
2021/09/02 07:11:25;;;;;;;;;30.00;29.00;;;;;;;;5072244;28;50891;-73
2021/09/02 07:13:51;;;;;;;;;28.75;28.75;;;;;;;;5071524;28;51158;-73
2021/09/02 07:16:16;;;;;;;;;26.25;26.00;;;;;;;;5071698;28;50912;-71
2021/09/02 07:18:41;;;;;;;;;22.50;21.50;;;;;;;;5071518;28;50855;-72
2021/09/02 07:21:06;;;;;;;;;30.25;27.50;;;;;;;;5072390;28;51206;-71
2021/09/02 07:23:31;;;;;;;;;25.50;25.25;;;;;;;;5071872;28;52037;-72
2021/09/02 07:25:57;;;;;;;;;31.00;28.75;;;;;;;;5053945;28;51111;-72
2021/09/02 07:28:22;;;;;;;;;28.25;28.25;;;;;;;;5071863;28;51139;-71
2021/09/02 07:30:47;;;;;;;;;29.75;27.25;;;;;;;;5072142;28;51179;-71
2021/09/02 07:33:12;;;;;;;;;29.75;28.75;;;;;;;;5071441;28;50966;-71
2021/09/02 07:35:38;;;;;;;;;27.50;27.25;;;;;;;;5071695;28;50980;-71
2021/09/02 07:38:03;;;;;;;;;29.75;28.75;;;;;;;;5071876;28;51308;-71
2021/09/02 07:40:29;;;;;;;;;30.00;27.75;;;;;;;;5072196;28;51353;-70
2021/09/02 07:42:54;;;;;;;;;27.00;26.50;;;;;;;;5078680;27;51934;-71
2021/09/02 07:45:19;;;;;;;;;25.25;23.25;;;;;;;;5046240;28;51078;-73
2021/09/02 07:47:44;;;;;;;;;28.25;27.75;;;;;;;;5075583;28;51035;-70
2021/09/02 07:50:10;;;;;;;;;28.00;27.00;;;;;;;;5075768;28;51204;-71
2021/09/02 07:52:36;;;;;;;;;29.67;28.67;;;;;;;;5076004;28;52370;-71
2021/09/02 07:55:02;;;;;;;;;30.00;28.75;;;;;;;;5075028;28;51025;-71
2021/09/02 07:57:28;;;;;;;;;29.25;27.75;;;;;;;;5074212;28;50952;-71
2021/09/02 07:59:53;;;;;;;;;30.75;29.25;;;;;;;;5073543;28;51391;-71
2021/09/02 08:02:18;;;;;;;;;28.25;27.00;;;;;;;;5067838;28;51432;-69
2021/09/02 08:04:43;;;;;;;;;34.25;29.75;;;;;;;;5074068;28;51006;-71
2021/09/02 08:07:08;;;;;;;;;27.50;27.00;;;;;;;;5074918;28;50858;-71
2021/09/02 08:09:34;;;;;;;;;28.50;27.75;;;;;;;;5074896;28;50847;-71
2021/09/02 08:11:59;;;;;;;;;29.50;27.25;;;;;;;;5074373;28;51168;-71
2021/09/02 08:14:24;;;;;;;;;30.25;29.00;;;;;;;;5074747;28;51094;-69
2021/09/02 08:16:49;;;;;;;;;32.25;29.25;;;;;;;;5056662;28;51131;-70
2021/09/02 08:19:15;;;;;;;;;34.25;31.00;;;;;;;;5074370;28;51366;-70
2021/09/02 08:21:40;;;;;;;;;33.25;31.00;;;;;;;;5074656;28;52184;-71
2021/09/02 08:24:06;;;;;;;;;33.50;31.00;;;;;;;;5074659;28;50981;-70
2021/09/02 08:26:33;;;;;;;;;34.00;29.75;;;;;;;;5074673;28;50993;-71
2021/09/02 08:28:58;;;;;;;;;36.50;31.50;;;;;;;;5074540;28;50943;-70
2021/09/02 08:31:24;;;;;;;;;34.00;30.50;;;;;;;;5074334;28;51171;-70
2021/09/02 08:33:49;;;;;;;;;43.50;36.50;;;;;;;;5073802;28;50983;-70
2021/09/02 08:36:14;;;;;;;;;36.25;32.00;;;;;;;;5074698;28;50998;-70
2021/09/02 08:38:41;;;;;;;;;30.00;29.25;;;;;;;;5055916;28;50992;-70
2021/09/02 08:41:09;;;;;;;;;32.75;29.75;;;;;;;;5073569;28;52053;-70
2021/09/02 08:43:35;;;;;;;;;38.25;33.00;;;;;;;;5073411;28;50969;-71
2021/09/02 08:46:01;;;;;;;;;40.00;34.50;;;;;;;;5073934;28;51000;-71
2021/09/02 08:48:26;;;;;;;;;37.50;32.75;;;;;;;;5073487;28;51355;-71
2021/09/02 08:50:52;;;;;;;;;32.50;30.00;;;;;;;;5074333;28;51372;-71
2021/09/02 08:53:17;;;;;;;;;37.50;31.75;;;;;;;;5073807;28;51096;-71
2021/09/02 08:55:42;;;;;;;;;35.75;31.75;;;;;;;;5073690;28;51019;-71
2021/09/02 08:58:08;;;;;;;;;42.25;33.25;;;;;;;;5073756;28;51319;-71
2021/09/02 09:00:33;;;;;;;;;35.75;31.25;;;;;;;;5073501;28;51126;-71
2021/09/02 09:03:00;;;;;;;;;34.50;31.25;;;;;;;;5054185;28;50964;-71
2021/09/02 09:05:27;;;;;;;;;37.25;31.50;;;;;;;;5073247;28;51136;-71
2021/09/02 09:07:53;;;;;;;;;33.50;30.50;;;;;;;;5073833;28;50936;-71
2021/09/02 09:10:19;;;;;;;;;22.50;22.50;;;;;;;;5072523;28;51777;-71
2021/09/02 09:12:51;;;;;;;;;36.75;31.75;;;;;;;;5073571;28;50942;-71
2021/09/02 09:15:16;;;;;;;;;30.50;29.25;;;;;;;;5073543;28;50981;-71
2021/09/02 09:17:42;;;;;;;;;33.00;30.25;;;;;;;;5073997;28;51117;-71
2021/09/02 09:20:07;;;;;;;;;28.00;26.75;;;;;;;;5073256;28;51114;-71
2021/09/02 09:22:33;;;;;;;;;33.75;31.25;;;;;;;;5073781;28;50954;-71
2021/09/02 09:25:16;;;;;;;;;31.25;29.25;;;;;;;;5073487;28;51012;-71
2021/09/02 09:27:44;;;;;;;;;31.00;28.50;;;;;;;;5073474;28;50947;-71
2021/09/02 09:30:22;;;;;;;;;28.25;26.00;;;;;;;;5072660;28;53542;-71
2021/09/02 09:32:58;;;;;;;;;25.75;24.00;;;;;;;;5073484;28;51037;-71
2021/09/02 09:35:37;;;;;;;;;25.25;23.50;;;;;;;;5073971;28;51051;-71
2021/09/02 09:38:05;;;;;;;;;25.00;24.25;;;;;;;;5073854;28;51297;-71
2021/09/02 09:40:31;;;;;;;;;23.75;23.75;;;;;;;;5073289;28;50905;-71
2021/09/02 09:42:56;;;;;;;;;27.00;26.25;;;;;;;;5077429;27;51171;-71
2021/09/02 09:45:40;;;;;;;;;26.00;25.75;;;;;;;;5082312;27;51159;-72
2021/09/02 09:48:25;;;;;;;;;26.50;24.75;;;;;;;;5055572;28;51279;-71
2021/09/02 09:51:07;;;;;;;;;21.25;21.25;;;;;;;;5073292;28;51093;-71
2021/09/02 09:53:32;;;;;;;;;23.50;23.00;;;;;;;;5072950;28;50942;-71
2021/09/02 09:55:58;;;;;;;;;26.75;26.50;;;;;;;;5072238;28;51283;-69
2021/09/02 09:58:25;;;;;;;;;25.50;24.75;;;;;;;;5073229;28;50860;-70
2021/09/02 10:00:54;;;;;;;;;26.00;23.75;;;;;;;;5072378;28;50939;-71
2021/09/02 10:03:20;;;;;;;;;27.75;26.75;;;;;;;;5053408;28;51037;-71
2021/09/02 10:05:47;;;;;;;;;24.25;24.25;;;;;;;;5072976;28;51165;-72
2021/09/02 10:08:12;;;;;;;;;24.50;23.75;;;;;;;;5072648;28;51124;-72
2021/09/02 10:10:37;;;;;;;;;20.25;20.25;;;;;;;;5072001;28;51972;-72
2021/09/02 10:13:02;;;;;;;;;21.25;21.25;;;;;;;;5072644;28;50874;-72
2021/09/02 10:15:30;;;;;;;;;20.50;20.00;;;;;;;;5072396;28;51066;-70
2021/09/02 10:17:56;;;;;;;;;19.50;19.00;;;;;;;;5072474;28;51263;-70
2021/09/02 10:20:23;;;;;;;;;22.25;21.75;;;;;;;;5071489;28;51800;-70
2021/09/02 10:22:49;;;;;;;;;17.50;17.50;;;;;;;;5072114;28;51037;-71
2021/09/02 10:25:29;;;;;;;;;22.25;22.00;;;;;;;;5053610;28;50978;-72
2021/09/02 10:28:01;;;;;;;;;21.75;21.00;;;;;;;;5071930;28;50952;-71
2021/09/02 10:30:26;;;;;;;;;27.00;24.25;;;;;;;;5071324;28;51964;-71
2021/09/02 10:32:52;;;;;;;;;16.75;16.75;;;;;;;;5072184;28;51075;-72
2021/09/02 10:35:17;;;;;;;;;24.75;22.25;;;;;;;;5071892;28;51085;-71
2021/09/02 10:37:43;;;;;;;;;21.75;21.00;;;;;;;;5072293;28;51005;-71
2021/09/02 10:40:18;;;;;;;;;22.75;21.25;;;;;;;;5072144;28;52817;-71
2021/09/02 10:42:44;;;;;;;;;23.25;23.25;;;;;;;;5072632;28;51252;-71
2021/09/02 10:45:24;;;;;;;;;23.00;22.50;;;;;;;;5072247;28;50942;-71
2021/09/02 10:47:50;;;;;;;;;22.00;21.75;;;;;;;;5071947;28;50938;-71
2021/09/02 10:50:22;;;;;;;;;25.75;25.25;;;;;;;;5071216;28;52325;-71
2021/09/02 10:52:48;;;;;;;;;22.50;22.50;;;;;;;;5071694;28;50913;-71
2021/09/02 10:55:33;;;;;;;;;19.50;19.50;;;;;;;;5071413;28;51106;-71
2021/09/02 10:58:00;;;;;;;;;16.25;16.25;;;;;;;;5059977;28;51265;-71
2021/09/02 11:00:39;;;;;;;;;21.50;20.75;;;;;;;;5071483;28;52879;-70
2021/09/02 11:03:12;;;;;;;;;24.25;23.00;;;;;;;;5052893;28;51105;-71
2021/09/02 11:05:37;;;;;;;;;22.00;21.75;;;;;;;;5052779;28;50993;-71
2021/09/02 11:08:02;;;;;;;;;19.25;18.75;;;;;;;;5052920;28;50954;-70
2021/09/02 11:10:27;;;;;;;;;18.75;18.50;;;;;;;;5071322;28;51015;-70
2021/09/02 11:13:02;;;;;;;;;20.00;18.25;;;;;;;;5071484;28;51009;-72
2021/09/02 11:15:27;;;;;;;;;18.00;18.00;;;;;;;;5071953;28;50962;-71
2021/09/02 11:18:00;;;;;;;;;16.50;16.50;;;;;;;;5071540;28;50851;-72
2021/09/02 11:20:28;;;;;;;;;17.75;17.75;;;;;;;;5055132;28;52171;-71
2021/09/02 11:23:17;;;;;;;;;15.25;14.25;;;;;;;;5074366;28;51100;-72
2021/09/02 11:25:44;;;;;;;;;14.00;14.00;;;;;;;;5062433;27;51097;-71
2021/09/02 11:28:09;;;;;;;;;15.50;15.50;;;;;;;;5075580;28;51190;-72
2021/09/02 11:30:35;;;;;;;;;14.50;14.25;;;;;;;;5057298;28;53210;-72
2021/09/02 11:33:01;;;;;;;;;17.00;15.33;;;;;;;;5075888;28;50946;-72
2021/09/02 11:35:26;;;;;;;;;17.33;17.00;;;;;;;;5057422;28;50950;-72
2021/09/02 11:37:52;;;;;;;;;15.00;14.67;;;;;;;;5075058;28;50926;-72
2021/09/02 11:40:22;;;;;;;;;12.33;12.33;;;;;;;;5075477;28;52148;-71
2021/09/02 11:42:47;;;;;;;;;14.00;13.67;;;;;;;;5075513;28;50959;-72
2021/09/02 11:45:15;;;;;;;;;12.33;11.00;;;;;;;;5045904;28;51344;-71
2021/09/02 11:47:40;;;;;;;;;10.67;9.67;;;;;;;;5074416;28;51456;-71
2021/09/02 11:50:06;;;;;;;;;14.67;14.67;;;;;;;;5073860;28;51818;-71
2021/09/02 11:52:38;;;;;;;;;15.00;15.00;;;;;;;;5074274;28;51028;-72
2021/09/02 11:55:04;;;;;;;;;12.67;12.00;;;;;;;;5074067;28;51020;-72
2021/09/02 11:57:29;;;;;;;;;11.33;11.33;;;;;;;;5073857;28;51021;-72
2021/09/02 11:59:54;;;;;;;;;10.33;10.33;;;;;;;;5073699;28;52797;-72
2021/09/02 12:02:20;;;;;;;;;13.00;11.67;;;;;;;;5054684;28;51240;-72
2021/09/02 12:04:47;;;;;;;;;11.67;10.67;;;;;;;;5073953;28;51035;-72
2021/09/02 12:07:14;;;;;;;;;15.00;14.33;;;;;;;;5074000;28;50966;-72
2021/09/02 12:09:42;;;;;;;;;13.00;11.00;;;;;;;;5074118;28;52946;-72
2021/09/02 12:12:07;;;;;;;;;10.00;10.00;;;;;;;;5073742;28;51187;-72
2021/09/02 12:14:34;;;;;;;;;11.67;10.00;;;;;;;;5055721;28;51146;-71
2021/09/02 12:17:00;;;;;;;;;14.33;13.67;;;;;;;;5074041;28;51249;-71
2021/09/02 12:19:26;;;;;;;;;11.00;11.00;;;;;;;;5073179;28;51826;-72
2021/09/02 12:21:51;;;;;;;;;12.00;11.67;;;;;;;;5073198;28;50921;-72
2021/09/02 12:24:17;;;;;;;;;10.33;9.33;;;;;;;;5073636;27;50914;-72
2021/09/02 12:26:43;;;;;;;;;15.00;15.00;;;;;;;;5073532;28;51110;-72
2021/09/02 12:29:12;;;;;;;;;11.33;10.67;;;;;;;;5073551;28;53915;-72
2021/09/02 12:31:38;;;;;;;;;13.00;12.67;;;;;;;;5073085;28;51012;-72
2021/09/02 12:34:06;;;;;;;;;12.00;11.67;;;;;;;;5072742;28;51181;-72
2021/09/02 12:36:33;;;;;;;;;10.67;10.33;;;;;;;;5073792;28;51037;-71
2021/09/02 12:39:17;;;;;;;;;14.67;14.33;;;;;;;;5055038;28;51105;-71
2021/09/02 12:41:43;;;;;;;;;13.33;12.33;;;;;;;;5073590;28;50861;-73
2021/09/02 12:44:10;;;;;;;;;15.00;14.33;;;;;;;;5073960;28;50985;-73
2021/09/02 12:46:47;;;;;;;;;13.00;13.00;;;;;;;;5073766;28;51327;-70
2021/09/02 12:49:13;;;;;;;;;13.00;13.00;;;;;;;;5073338;28;52247;-73
2021/09/02 12:51:38;;;;;;;;;11.67;11.67;;;;;;;;5073926;28;51020;-71
2021/09/02 12:54:03;;;;;;;;;15.00;14.67;;;;;;;;5073363;28;51028;-72
2021/09/02 12:56:36;;;;;;;;;14.33;14.00;;;;;;;;5073999;28;51251;-70
2021/09/02 12:59:01;;;;;;;;;25.33;24.00;;;;;;;;5073409;28;52223;-73
2021/09/02 13:01:27;;;;;;;;;27.50;27.50;;;;;;;;5073674;28;50854;-70
2021/09/02 13:03:52;;;;;;;;;13.00;12.33;;;;;;;;5071677;28;51153;-71
2021/09/02 13:06:17;;;;;;;;;13.33;13.33;;;;;;;;5073801;28;51359;-71
2021/09/02 13:08:42;;;;;;;;;12.00;12.00;;;;;;;;5073384;28;51089;-72
2021/09/02 13:11:07;;;;;;;;;16.00;16.00;;;;;;;;5073757;28;50891;-72
2021/09/02 13:13:33;;;;;;;;;14.33;14.00;;;;;;;;5073095;28;50922;-72
2021/09/02 13:15:58;;;;;;;;;15.67;14.00;;;;;;;;5073684;28;51110;-72
2021/09/02 13:18:23;;;;;;;;;14.67;14.33;;;;;;;;5072623;28;51099;-71
2021/09/02 13:20:48;;;;;;;;;15.00;14.00;;;;;;;;5073476;28;50973;-72
2021/09/02 13:23:16;;;;;;;;;13.00;13.00;;;;;;;;5074177;28;51428;-73
2021/09/02 13:25:41;;;;;;;;;17.00;16.00;;;;;;;;5073800;28;51172;-71
2021/09/02 13:28:06;;;;;;;;;14.00;13.33;;;;;;;;5054552;28;54027;-70
2021/09/02 13:30:32;;;;;;;;;16.67;15.00;;;;;;;;5074141;28;51069;-73
2021/09/02 13:32:57;;;;;;;;;14.00;13.00;;;;;;;;5073274;28;51058;-74
2021/09/02 13:35:22;;;;;;;;;14.33;12.67;;;;;;;;5072991;28;51187;-74
2021/09/02 13:37:48;;;;;;;;;9.33;8.00;;;;;;;;5054576;28;53747;-74
2021/09/02 13:40:17;;;;;;;;;15.00;14.00;;;;;;;;5055177;28;50985;-69
2021/09/02 13:42:43;;;;;;;;;16.33;16.00;;;;;;;;5072082;28;51345;-69
2021/09/02 13:45:08;;;;;;;;;14.00;13.33;;;;;;;;5063217;28;51008;-69
2021/09/02 13:47:33;;;;;;;;;14.00;13.67;;;;;;;;5067925;28;51761;-71
2021/09/02 13:49:59;;;;;;;;;17.00;15.33;;;;;;;;5072302;28;51099;-69
2021/09/02 13:52:24;;;;;;;;;14.00;13.33;;;;;;;;5072801;28;51073;-73
2021/09/02 13:54:49;;;;;;;;;15.00;14.67;;;;;;;;5073159;28;51087;-69
2021/09/02 13:57:14;;;;;;;;;12.67;12.67;;;;;;;;5072093;28;52374;-71
2021/09/02 13:59:40;;;;;;;;;12.00;11.00;;;;;;;;5071961;28;50973;-71
2021/09/02 14:02:05;;;;;;;;;16.00;16.00;;;;;;;;5071361;28;51067;-71
2021/09/02 14:04:30;;;;;;;;;16.00;15.00;;;;;;;;5072658;28;51315;-69
2021/09/02 14:06:55;;;;;;;;;14.67;14.67;;;;;;;;5072381;28;52004;-70
2021/09/02 14:09:21;;;;;;;;;13.00;13.00;;;;;;;;5072668;28;51040;-71
2021/09/02 14:11:47;;;;;;;;;14.67;14.00;;;;;;;;5072271;28;50921;-71